Time;durP1;ratioP1;P1;durP2;ratioP2;P2;SDS_P1;SDS_P2;PMS_P1;PMS_P2;Temp;Humidity;BMP_temperature;BMP_pressure;BME280_temperature;BME280_humidity;BME280_pressure;Samples;Min_cycle;Max_cycle;Signal;HPM_P1;HPM_P2
2024/04/01 00:00:09;;;;;;;12.25;1.73;;;14.00;99.90;;;;;;4972653;28;20220;-90
2024/04/01 00:02:35;;;;;;;7.10;1.80;;;14.00;99.90;;;;;;4969814;28;20577;-88
2024/04/01 00:05:02;;;;;;;6.13;1.92;;;14.00;99.90;;;;;;4972550;28;20216;-90
2024/04/01 00:07:27;;;;;;;6.97;1.77;;;14.00;99.90;;;;;;4973401;28;20215;-90
2024/04/01 00:09:54;;;;;;;5.00;1.42;;;14.00;99.90;;;;;;4971313;28;20684;-90
2024/04/01 00:12:20;;;;;;;6.45;1.55;;;14.00;99.90;;;;;;4971875;28;20256;-90
2024/04/01 00:14:48;;;;;;;6.95;1.55;;;14.00;99.90;;;;;;4972782;28;20316;-90
2024/04/01 00:17:14;;;;;;;6.82;1.77;;;14.00;99.90;;;;;;4972090;28;20204;-90
2024/04/01 00:19:41;;;;;;;6.45;1.55;;;14.00;99.90;;;;;;4971924;28;20304;-89
2024/04/01 00:22:07;;;;;;;10.05;1.50;;;14.00;99.90;;;;;;4973557;28;20283;-89
2024/04/01 00:24:34;;;;;;;3.95;1.17;;;14.00;99.90;;;;;;4966811;28;20205;-90
2024/04/01 00:26:59;;;;;;;7.13;1.60;;;13.90;99.90;;;;;;4968978;28;20212;-88
2024/04/01 00:29:26;;;;;;;7.80;1.50;;;14.00;99.90;;;;;;4969728;28;20227;-89
2024/04/01 00:31:53;;;;;;;5.45;1.45;;;13.90;99.90;;;;;;4973462;28;20620;-90
2024/04/01 00:34:20;;;;;;;7.32;1.50;;;14.00;99.90;;;;;;4968542;28;20302;-90
2024/04/01 00:36:46;;;;;;;5.93;1.17;;;13.90;99.90;;;;;;4972874;28;20208;-90
2024/04/01 00:39:13;;;;;;;5.15;1.55;;;13.80;99.90;;;;;;4970809;28;20287;-90
2024/04/01 00:41:39;;;;;;;3.85;1.77;;;13.80;99.90;;;;;;4973841;28;20228;-90
2024/04/01 00:44:05;;;;;;;7.57;1.73;;;13.80;99.90;;;;;;4974258;28;20235;-90
2024/04/01 00:46:31;;;;;;;3.70;1.70;;;13.80;99.90;;;;;;4968922;28;20221;-90
2024/04/01 00:49:00;;;;;;;6.60;1.75;;;13.70;99.90;;;;;;4972308;28;20204;-90
2024/04/01 00:51:26;;;;;;;5.70;1.20;;;13.80;99.90;;;;;;4971802;28;20836;-90
2024/04/01 00:53:53;;;;;;;10.95;1.50;;;13.80;99.90;;;;;;4970194;28;20809;-90
2024/04/01 00:56:22;;;;;;;8.13;1.73;;;13.80;99.90;;;;;;4973685;28;20331;-90
2024/04/01 00:58:50;;;;;;;6.75;1.38;;;13.70;99.90;;;;;;4969595;28;20208;-90
2024/04/01 01:01:17;;;;;;;8.88;1.40;;;13.70;99.90;;;;;;4972306;28;20223;-90
2024/04/01 01:03:44;;;;;;;6.10;1.50;;;13.70;99.90;;;;;;4975387;28;20259;-91
2024/04/01 01:06:15;;;;;;;5.22;1.30;;;13.70;99.90;;;;;;4965863;28;20201;-91
2024/04/01 01:08:44;;;;;;;2.70;1.20;;;13.70;99.90;;;;;;4971458;28;20221;-90
2024/04/01 01:11:10;;;;;;;6.95;1.50;;;13.70;99.90;;;;;;4972983;28;20236;-90
2024/04/01 01:13:37;;;;;;;10.57;1.40;;;13.70;99.90;;;;;;4970701;28;20227;-91
2024/04/01 01:16:03;;;;;;;3.80;1.45;;;13.80;99.90;;;;;;4970823;28;20264;-90
2024/04/01 01:18:30;;;;;;;8.68;1.40;;;13.70;99.90;;;;;;4967850;28;20205;-89
2024/04/01 01:20:56;;;;;;;4.70;1.40;;;13.70;99.90;;;;;;4972064;28;20597;-89
2024/04/01 01:23:25;;;;;;;8.63;1.10;;;13.70;99.90;;;;;;4964114;28;20216;-89
2024/04/01 01:25:50;;;;;;;11.30;2.13;;;13.60;99.90;;;;;;4967892;28;20209;-89
2024/04/01 01:28:17;;;;;;;4.40;1.40;;;13.60;99.90;;;;;;4987023;28;20200;-89
2024/04/01 01:30:43;;;;;;;4.93;1.40;;;13.60;99.90;;;;;;4965974;28;20221;-89
2024/04/01 01:33:10;;;;;;;10.55;1.40;;;13.70;99.90;;;;;;4963473;28;20295;-89
2024/04/01 01:35:37;;;;;;;7.05;1.13;;;13.70;99.90;;;;;;4974290;28;20239;-89
2024/04/01 01:38:05;;;;;;;5.35;1.40;;;13.70;99.90;;;;;;4971921;28;20259;-89
2024/04/01 01:40:32;;;;;;;5.28;1.30;;;13.60;99.90;;;;;;4975179;28;20244;-89
2024/04/01 01:42:59;;;;;;;10.02;1.35;;;13.50;99.90;;;;;;4976793;28;20216;-89
2024/04/01 01:45:25;;;;;;;7.38;2.22;;;13.40;99.90;;;;;;4968673;28;20236;-88
2024/04/01 01:47:52;;;;;;;8.50;1.40;;;13.60;99.90;;;;;;4976667;28;20264;-90
2024/04/01 01:50:18;;;;;;;3.67;0.98;;;13.50;99.90;;;;;;4976407;28;20238;-89
2024/04/01 01:52:44;;;;;;;6.70;1.33;;;13.50;99.90;;;;;;4972667;28;20196;-90
2024/04/01 01:55:10;;;;;;;4.65;1.10;;;13.50;99.90;;;;;;4976005;28;20585;-89
2024/04/01 01:57:39;;;;;;;5.35;1.40;;;13.60;99.90;;;;;;4972189;28;20216;-88
2024/04/01 02:00:05;;;;;;;5.55;1.45;;;13.60;99.90;;;;;;4973260;28;20215;-90
2024/04/01 02:02:33;;;;;;;6.40;1.58;;;13.60;99.90;;;;;;4980224;28;20215;-91
2024/04/01 02:04:59;;;;;;;6.32;1.15;;;13.50;99.90;;;;;;4967997;28;20220;-90
2024/04/01 02:07:26;;;;;;;6.70;1.10;;;13.30;99.90;;;;;;4976638;28;20236;-90
2024/04/01 02:09:52;;;;;;;4.68;1.40;;;13.30;99.90;;;;;;4976576;28;20216;-90
2024/04/01 02:12:19;;;;;;;6.93;1.45;;;13.30;99.90;;;;;;4971795;28;20220;-88
2024/04/01 02:14:47;;;;;;;4.20;1.10;;;13.30;99.90;;;;;;4961318;28;20247;-88
2024/04/01 02:17:13;;;;;;;5.30;1.00;;;13.30;99.90;;;;;;4976237;28;20299;-89
2024/04/01 02:19:42;;;;;;;8.25;1.52;;;13.20;99.90;;;;;;4976339;28;20213;-89
2024/04/01 02:22:12;;;;;;;5.22;1.17;;;13.10;99.90;;;;;;4964779;28;20641;-89
2024/04/01 02:24:38;;;;;;;5.05;1.58;;;13.00;99.90;;;;;;4975651;28;20299;-89
2024/04/01 02:27:05;;;;;;;3.58;1.30;;;12.90;99.90;;;;;;4975488;28;21295;-88
2024/04/01 02:29:31;;;;;;;6.15;1.30;;;12.80;99.90;;;;;;4968541;28;20210;-89
2024/04/01 02:31:59;;;;;;;4.57;1.15;;;12.80;99.90;;;;;;4966609;28;20228;-89
2024/04/01 02:34:25;;;;;;;2.90;1.05;;;12.70;99.90;;;;;;4964871;28;20691;-89
2024/04/01 02:36:52;;;;;;;5.65;1.20;;;12.70;99.90;;;;;;4968666;28;20287;-90
2024/04/01 02:39:18;;;;;;;3.30;1.10;;;12.60;99.90;;;;;;4964900;28;20211;-89
2024/04/01 02:41:45;;;;;;;5.05;1.48;;;12.60;99.90;;;;;;4968395;28;20221;-89
2024/04/01 02:44:12;;;;;;;1.75;1.10;;;12.60;99.90;;;;;;4964238;28;20303;-89
2024/04/01 02:46:40;;;;;;;3.35;1.10;;;12.70;99.90;;;;;;4975682;28;20291;-90
2024/04/01 02:49:07;;;;;;;7.35;1.48;;;12.60;99.90;;;;;;4968988;28;20207;-89
2024/04/01 02:51:35;;;;;;;3.45;1.20;;;12.60;99.90;;;;;;4974646;28;20707;-90
2024/04/01 02:54:00;;;;;;;6.35;1.30;;;12.50;99.90;;;;;;4975278;28;20207;-90
2024/04/01 02:56:28;;;;;;;2.85;0.88;;;12.50;99.90;;;;;;4975089;28;20204;-90
2024/04/01 02:58:53;;;;;;;7.15;1.73;;;12.50;99.90;;;;;;4970992;28;20216;-89
2024/04/01 03:01:20;;;;;;;4.28;1.27;;;12.50;99.90;;;;;;4972458;28;20286;-90
2024/04/01 03:03:46;;;;;;;5.95;1.10;;;12.50;99.90;;;;;;4975120;28;20216;-90
2024/04/01 03:06:15;;;;;;;3.33;1.00;;;12.50;99.90;;;;;;4969373;28;20207;-90
2024/04/01 03:08:40;;;;;;;1.80;0.90;;;12.70;99.90;;;;;;4975737;28;20236;-89
2024/04/01 03:11:07;;;;;;;4.72;0.90;;;12.70;99.90;;;;;;4975275;28;20279;-90
2024/04/01 03:13:33;;;;;;;5.65;1.17;;;12.80;99.90;;;;;;4971138;28;20538;-88
2024/04/01 03:16:00;;;;;;;4.90;1.40;;;12.80;99.90;;;;;;4974589;28;20706;-89
2024/04/01 03:18:26;;;;;;;1.70;0.80;;;12.60;99.90;;;;;;4969483;28;20204;-90
2024/04/01 03:20:53;;;;;;;6.43;3.20;;;12.70;99.90;;;;;;4973246;28;20232;-90
2024/04/01 03:23:21;;;;;;;4.47;1.20;;;12.70;99.90;;;;;;4968799;28;20218;-90
2024/04/01 03:25:51;;;;;;;4.30;1.05;;;12.60;99.90;;;;;;4974167;28;20211;-90
2024/04/01 03:28:17;;;;;;;2.80;0.88;;;12.50;99.90;;;;;;4971475;28;20212;-90
2024/04/01 03:30:45;;;;;;;3.08;1.23;;;12.50;99.90;;;;;;4975631;28;20216;-90
2024/04/01 03:33:12;;;;;;;3.38;1.30;;;12.50;99.90;;;;;;4975210;28;20204;-90
2024/04/01 03:35:39;;;;;;;2.33;1.20;;;12.40;99.90;;;;;;4971275;28;20237;-90
2024/04/01 03:38:06;;;;;;;4.00;1.38;;;12.50;99.90;;;;;;4966667;28;20232;-90
2024/04/01 03:40:38;;;;;;;3.78;1.17;;;12.60;99.90;;;;;;4966916;28;20236;-90
2024/04/01 03:43:06;;;;;;;3.33;1.20;;;12.60;99.90;;;;;;4973299;28;20690;-90
2024/04/01 03:45:31;;;;;;;2.38;1.50;;;12.50;99.90;;;;;;4973310;28;20307;-90
2024/04/01 03:47:58;;;;;;;5.85;1.40;;;12.40;99.90;;;;;;4973925;28;20200;-90
2024/04/01 03:50:24;;;;;;;2.50;1.30;;;12.40;99.90;;;;;;4955739;28;20229;-90
2024/04/01 03:52:51;;;;;;;3.95;1.40;;;12.30;99.90;;;;;;4969788;28;20211;-90
2024/04/01 03:55:17;;;;;;;6.10;1.30;;;12.40;99.90;;;;;;4965678;28;20230;-90
2024/04/01 03:57:46;;;;;;;6.65;1.55;;;12.30;99.90;;;;;;4960155;28;20295;-90
2024/04/01 04:00:13;;;;;;;3.70;1.15;;;12.40;99.90;;;;;;4973123;28;20217;-89
2024/04/01 04:02:42;;;;;;;3.63;1.50;;;12.40;99.90;;;;;;4974264;28;20209;-90
2024/04/01 04:05:08;;;;;;;6.07;1.63;;;12.40;99.90;;;;;;4969438;28;20275;-89
2024/04/01 04:07:35;;;;;;;6.38;1.10;;;12.30;99.90;;;;;;4974492;28;20212;-89
2024/04/01 04:10:03;;;;;;;3.03;1.30;;;12.30;99.90;;;;;;4969938;28;20215;-90
2024/04/01 04:12:30;;;;;;;2.00;0.93;;;12.30;99.90;;;;;;4967006;28;20211;-90
2024/04/01 04:14:58;;;;;;;2.85;1.40;;;12.30;99.90;;;;;;4968350;28;20255;-89
2024/04/01 04:17:25;;;;;;;3.50;1.30;;;12.40;99.90;;;;;;4964668;28;20216;-89
2024/04/01 04:19:51;;;;;;;4.13;1.30;;;12.50;99.90;;;;;;4971778;28;20240;-89
2024/04/01 04:22:18;;;;;;;2.53;1.23;;;12.60;99.90;;;;;;4967663;28;20295;-90
2024/04/01 04:24:44;;;;;;;4.28;1.30;;;12.60;99.90;;;;;;4974427;28;20215;-90
2024/04/01 04:27:11;;;;;;;4.55;1.20;;;12.50;99.90;;;;;;4973368;28;20200;-91
2024/04/01 04:29:37;;;;;;;3.17;1.45;;;12.40;99.90;;;;;;4965357;28;20622;-89
2024/04/01 04:32:11;;;;;;;6.15;1.70;;;12.20;99.90;;;;;;4970776;28;20279;-90
2024/04/01 04:34:37;;;;;;;3.22;1.20;;;12.20;99.90;;;;;;4968269;28;20257;-90
2024/04/01 04:37:05;;;;;;;6.70;1.58;;;12.10;99.90;;;;;;4966361;28;20232;-90
2024/04/01 04:39:31;;;;;;;3.92;1.45;;;12.10;99.90;;;;;;4963749;28;20358;-90
2024/04/01 04:41:58;;;;;;;4.55;1.73;;;12.00;99.90;;;;;;4959794;28;20221;-89
2024/04/01 04:44:24;;;;;;;3.88;1.45;;;12.00;99.90;;;;;;4965041;28;20215;-90
2024/04/01 04:46:51;;;;;;;3.75;1.20;;;12.00;99.90;;;;;;4968079;28;20196;-90
2024/04/01 04:49:18;;;;;;;2.42;1.35;;;12.00;99.90;;;;;;4973991;28;20581;-91
2024/04/01 04:51:45;;;;;;;2.88;1.45;;;12.10;99.90;;;;;;4968816;28;20261;-90
2024/04/01 04:54:11;;;;;;;3.70;1.83;;;12.10;99.90;;;;;;4964668;28;20648;-91
2024/04/01 04:56:38;;;;;;;4.43;1.73;;;12.20;99.90;;;;;;4971870;28;20256;-90
2024/04/01 04:59:04;;;;;;;4.60;1.55;;;12.10;99.90;;;;;;4956069;28;20217;-91
2024/04/01 05:01:32;;;;;;;2.72;1.48;;;12.20;99.90;;;;;;4966114;28;20232;-91
2024/04/01 05:03:58;;;;;;;2.92;1.83;;;12.20;99.90;;;;;;4964134;28;20745;-91
2024/04/01 05:06:26;;;;;;;3.63;2.00;;;12.10;99.90;;;;;;4967203;28;20193;-90
2024/04/01 05:08:53;;;;;;;4.35;2.08;;;12.20;99.90;;;;;;4972671;28;20211;-91
2024/04/01 05:11:20;;;;;;;4.80;2.20;;;12.10;99.90;;;;;;4966052;28;20267;-91
2024/04/01 05:13:45;;;;;;;6.20;2.10;;;12.10;99.90;;;;;;4973462;28;20205;-90
2024/04/01 05:16:15;;;;;;;4.05;2.00;;;12.00;99.90;;;;;;4975372;28;20228;-90
2024/04/01 05:18:41;;;;;;;3.88;2.20;;;12.00;99.90;;;;;;4975679;28;20212;-90
2024/04/01 05:21:08;;;;;;;4.93;2.42;;;12.00;99.90;;;;;;4970982;28;20232;-90
2024/04/01 05:23:35;;;;;;;5.63;2.75;;;12.10;99.90;;;;;;4973034;28;20588;-90
2024/04/01 05:26:02;;;;;;;3.22;2.33;;;12.00;99.90;;;;;;4975012;28;20211;-90
2024/04/01 05:28:28;;;;;;;4.90;2.45;;;11.90;99.90;;;;;;4972562;28;20201;-91
2024/04/01 05:30:55;;;;;;;3.42;2.35;;;11.90;99.90;;;;;;4971011;28;20224;-90
2024/04/01 05:33:21;;;;;;;4.78;2.85;;;11.90;99.90;;;;;;4974975;28;20212;-90
2024/04/01 05:35:49;;;;;;;5.47;2.55;;;11.90;99.90;;;;;;4973679;28;20246;-90
2024/04/01 05:38:15;;;;;;;3.40;2.22;;;12.00;99.90;;;;;;4974389;28;20663;-91
2024/04/01 05:40:43;;;;;;;4.30;2.78;;;11.90;99.90;;;;;;4975678;28;20311;-90
2024/04/01 05:43:09;;;;;;;5.43;2.80;;;11.70;99.90;;;;;;4968065;28;20295;-92
2024/04/01 05:45:36;;;;;;;4.47;2.53;;;11.70;99.90;;;;;;4967599;28;20214;-92
2024/04/01 05:48:02;;;;;;;2.70;2.22;;;11.70;99.90;;;;;;4969200;28;20216;-92
2024/04/01 05:50:29;;;;;;;3.50;2.80;;;11.70;99.90;;;;;;4977841;28;20228;-92
2024/04/01 05:52:55;;;;;;;4.75;2.70;;;11.70;99.90;;;;;;4973633;28;20296;-91
2024/04/01 05:55:22;;;;;;;5.88;2.88;;;11.60;99.90;;;;;;4976049;28;20319;-92
2024/04/01 05:57:49;;;;;;;5.75;2.85;;;11.70;99.90;;;;;;4966722;28;20292;-91
2024/04/01 06:00:16;;;;;;;3.58;2.55;;;11.70;99.90;;;;;;4970121;28;20240;-91
2024/04/01 06:02:46;;;;;;;3.05;2.60;;;11.70;99.90;;;;;;4964901;28;20570;-91
2024/04/01 06:05:13;;;;;;;4.80;3.03;;;11.70;99.90;;;;;;4975691;28;20220;-91
2024/04/01 06:07:41;;;;;;;4.47;2.75;;;11.80;99.90;;;;;;4977203;28;20674;-91
2024/04/01 06:10:08;;;;;;;3.58;2.60;;;11.70;99.90;;;;;;4961265;28;20205;-92
2024/04/01 06:12:34;;;;;;;3.42;2.80;;;11.70;99.90;;;;;;4976944;28;20223;-92
2024/04/01 06:15:02;;;;;;;4.45;2.78;;;11.70;99.90;;;;;;4977426;28;20232;-91
2024/04/01 06:17:28;;;;;;;3.42;2.85;;;11.60;99.90;;;;;;4973775;28;20600;-92
2024/04/01 06:19:55;;;;;;;6.30;3.28;;;11.70;99.90;;;;;;4974095;28;20691;-91
2024/04/01 06:22:21;;;;;;;4.25;2.75;;;11.70;99.90;;;;;;4969571;28;20212;-90
2024/04/01 06:24:50;;;;;;;3.65;2.67;;;11.60;99.90;;;;;;4966075;28;20291;-91
2024/04/01 06:27:17;;;;;;;4.00;2.58;;;11.60;99.90;;;;;;4966553;28;20264;-90
2024/04/01 06:29:43;;;;;;;2.20;2.00;;;11.60;99.90;;;;;;4977229;28;20212;-89
2024/04/01 06:32:11;;;;;;;2.22;2.00;;;11.50;99.90;;;;;;4971429;28;20236;-89
2024/04/01 06:34:38;;;;;;;3.28;2.47;;;11.50;99.90;;;;;;4969298;28;20212;-90
2024/04/01 06:37:04;;;;;;;6.65;2.50;;;11.60;99.90;;;;;;4975773;28;20215;-91
2024/04/01 06:39:30;;;;;;;2.55;2.17;;;11.50;99.90;;;;;;4971735;28;20224;-89
2024/04/01 06:41:56;;;;;;;4.05;2.08;;;11.50;99.90;;;;;;4963944;28;20239;-90
2024/04/01 06:44:23;;;;;;;2.92;2.08;;;11.50;99.90;;;;;;4964350;28;20205;-91
2024/04/01 06:46:49;;;;;;;2.47;2.10;;;11.60;99.90;;;;;;4966910;28;20267;-91
2024/04/01 06:49:17;;;;;;;2.83;1.60;;;11.70;99.90;;;;;;4981874;28;20205;-91
2024/04/01 06:51:43;;;;;;;1.85;1.63;;;11.70;99.90;;;;;;4970801;28;20232;-91
2024/04/01 06:54:11;;;;;;;1.65;1.35;;;11.70;99.90;;;;;;4958664;28;20204;-89
2024/04/01 06:56:37;;;;;;;2.97;1.70;;;11.70;99.90;;;;;;4975296;28;20896;-92
2024/04/01 06:59:04;;;;;;;2.97;1.65;;;11.60;99.90;;;;;;4978340;28;20291;-91
2024/04/01 07:01:31;;;;;;;2.05;1.05;;;11.50;99.90;;;;;;4976995;28;20319;-91
2024/04/01 07:03:57;;;;;;;2.33;1.10;;;11.40;99.90;;;;;;4975624;28;20220;-91
2024/04/01 07:06:25;;;;;;;1.75;1.10;;;11.40;99.90;;;;;;4975398;28;20670;-91
2024/04/01 07:08:53;;;;;;;2.75;1.45;;;11.40;99.90;;;;;;4975478;28;20205;-92
2024/04/01 07:11:19;;;;;;;2.67;1.13;;;11.40;99.90;;;;;;4975518;28;20235;-91
2024/04/01 07:13:45;;;;;;;2.42;0.80;;;11.40;99.90;;;;;;4975686;28;20192;-91
2024/04/01 07:16:11;;;;;;;1.00;0.88;;;11.70;99.90;;;;;;4975223;28;20667;-92
2024/04/01 07:18:38;;;;;;;4.82;0.80;;;11.80;99.90;;;;;;4975498;28;20279;-91
2024/04/01 07:21:04;;;;;;;2.10;0.80;;;11.80;99.90;;;;;;4975201;28;20238;-91
2024/04/01 07:23:32;;;;;;;1.70;0.80;;;11.70;99.90;;;;;;4971504;28;20200;-89
2024/04/01 07:26:01;;;;;;;3.00;0.70;;;11.70;99.90;;;;;;4962244;28;20209;-90
2024/04/01 07:28:28;;;;;;;2.50;0.63;;;11.60;99.90;;;;;;4963528;28;20208;-89
2024/04/01 07:31:03;;;;;;;0.20;0.20;;;11.60;99.90;;;;;;4965762;28;20324;-88
2024/04/01 07:33:30;;;;;;;1.20;0.40;;;11.60;99.90;;;;;;4970048;28;20193;-88
2024/04/01 07:35:56;;;;;;;0.10;0.10;;;11.60;99.90;;;;;;4974466;28;20251;-90
2024/04/01 07:38:56;;;;;;;1.92;0.47;;;11.60;99.90;;;;;;4976918;28;20690;-91
2024/04/01 07:41:25;;;;;;;4.25;0.22;;;11.50;99.90;;;;;;4966380;28;20607;-89
2024/04/01 07:43:52;;;;;;;1.63;0.30;;;11.40;99.90;;;;;;4963568;28;20242;-92
2024/04/01 07:46:19;;;;;;;1.13;0.40;;;11.30;99.90;;;;;;4961081;28;20284;-91
2024/04/01 07:48:46;;;;;;;2.10;0.40;;;11.20;99.90;;;;;;4976792;28;20215;-90
2024/04/01 07:51:12;;;;;;;0.85;0.30;;;11.30;99.90;;;;;;4972247;28;20274;-89
2024/04/01 07:53:39;;;;;;;1.02;0.30;;;11.20;99.90;;;;;;4976085;28;20203;-90
2024/04/01 07:56:05;;;;;;;0.20;0.20;;;11.30;99.90;;;;;;4966429;28;20235;-89
2024/04/01 07:58:33;;;;;;;1.10;0.20;;;11.40;99.90;;;;;;4974203;28;20201;-89
2024/04/01 08:01:04;;;;;;;0.43;0.20;;;11.30;99.90;;;;;;4975075;28;20259;-90
2024/04/01 08:03:31;;;;;;;0.52;0.30;;;11.30;99.90;;;;;;4974911;28;20263;-90
2024/04/01 08:05:57;;;;;;;1.77;0.40;;;11.20;99.90;;;;;;4970780;28;20208;-90
2024/04/01 08:08:24;;;;;;;0.70;0.55;;;11.10;99.90;;;;;;4975386;28;20219;-91
2024/04/01 08:11:05;;;;;;;1.98;1.63;;;11.10;99.90;;;;;;4978575;28;20327;-91
2024/04/01 08:13:32;;;;;;;2.20;2.00;;;11.10;99.90;;;;;;4976107;28;20204;-92
2024/04/01 08:16:04;;;;;;;0.68;0.57;;;11.10;99.90;;;;;;4969606;28;20232;-91
2024/04/01 08:18:31;;;;;;;2.05;0.30;;;11.10;99.90;;;;;;4973648;28;20592;-92
2024/04/01 08:20:59;;;;;;;3.67;2.38;;;11.10;99.90;;;;;;4974814;28;20710;-91
2024/04/01 08:23:28;;;;;;;0.63;0.43;;;11.10;99.90;;;;;;4972984;28;20243;-91
2024/04/01 08:25:54;;;;;;;0.45;0.30;;;11.10;99.90;;;;;;4966977;28;20209;-91
2024/04/01 08:28:21;;;;;;;0.70;0.70;;;11.00;99.90;;;;;;4976231;28;20207;-91
2024/04/01 08:30:49;;;;;;;8.85;7.95;;;11.00;99.90;;;;;;4972585;28;20252;-91
2024/04/01 08:33:16;;;;;;;1.33;1.15;;;10.90;99.90;;;;;;4971146;28;20232;-91
2024/04/01 08:35:42;;;;;;;12.45;11.15;;;10.90;99.90;;;;;;4968558;28;20316;-91
2024/04/01 08:38:09;;;;;;;2.72;2.53;;;11.00;99.90;;;;;;4969863;28;20213;-92
2024/04/01 08:40:46;;;;;;;2.42;2.22;;;11.00;99.90;;;;;;4966086;28;20311;-90
2024/04/01 08:43:17;;;;;;;5.07;4.18;;;11.10;99.90;;;;;;4972922;28;20207;-90
2024/04/01 08:45:45;;;;;;;1.20;0.90;;;11.20;99.90;;;;;;4970496;28;20292;-92
2024/04/01 08:48:16;;;;;;;1.50;1.40;;;11.30;99.90;;;;;;4974080;28;20276;-91
2024/04/01 08:50:50;;;;;;;2.78;2.45;;;11.30;99.90;;;;;;4978889;28;20228;-91
2024/04/01 08:53:26;;;;;;;2.05;0.50;;;11.30;99.90;;;;;;4962175;28;20197;-94
2024/04/01 08:55:52;;;;;;;0.20;0.20;;;11.30;99.90;;;;;;4960971;28;20264;-89
2024/04/01 08:58:20;;;;;;;1.05;0.60;;;11.40;99.90;;;;;;4973871;28;20212;-90
2024/04/01 09:00:46;;;;;;;1.08;0.93;;;11.50;99.90;;;;;;4975575;28;20714;-93
2024/04/01 09:03:14;;;;;;;4.15;3.85;;;11.50;99.90;;;;;;4977974;28;20200;-92
2024/04/01 09:05:40;;;;;;;1.50;1.10;;;11.60;99.90;;;;;;4979093;28;20627;-88
2024/04/01 09:08:07;;;;;;;1.42;0.70;;;11.70;99.90;;;;;;4977450;28;20238;-90
2024/04/01 09:10:33;;;;;;;0.70;0.70;;;11.80;99.90;;;;;;4977170;28;20232;-89
2024/04/01 09:13:00;;;;;;;1.02;0.60;;;11.90;99.90;;;;;;4976156;28;20242;-90
2024/04/01 09:15:27;;;;;;;0.20;0.20;;;11.90;99.90;;;;;;4966621;28;20319;-92
2024/04/01 09:17:54;;;;;;;0.30;0.30;;;12.00;99.90;;;;;;4960208;28;20244;-92
2024/04/01 09:20:21;;;;;;;0.65;0.30;;;11.90;99.90;;;;;;4978880;28;20228;-92
2024/04/01 09:22:48;;;;;;;0.25;0.25;;;11.90;99.90;;;;;;4979020;28;20205;-92
2024/04/01 09:25:14;;;;;;;0.32;0.28;;;11.70;99.90;;;;;;4977972;28;20222;-92
2024/04/01 09:27:41;;;;;;;0.13;0.10;;;11.70;99.90;;;;;;4978734;28;20291;-92
2024/04/01 09:30:09;;;;;;;0.43;0.40;;;11.70;99.90;;;;;;4978128;28;20214;-92
2024/04/01 09:32:36;;;;;;;2.63;0.85;;;11.60;99.90;;;;;;4978149;28;20204;-92
2024/04/01 09:35:02;;;;;;;0.47;0.40;;;11.50;99.90;;;;;;4977829;28;20305;-91
2024/04/01 09:37:30;;;;;;;0.30;0.20;;;11.40;99.90;;;;;;4977165;28;20224;-91
2024/04/01 09:39:56;;;;;;;0.28;0.28;;;11.40;99.90;;;;;;4977247;28;20204;-92
2024/04/01 09:42:24;;;;;;;1.08;0.70;;;11.40;99.90;;;;;;4977381;28;20242;-91
2024/04/01 09:44:51;;;;;;;0.90;0.90;;;11.40;99.90;;;;;;4977290;28;20212;-91
2024/04/01 09:47:18;;;;;;;4.53;4.13;;;11.30;99.90;;;;;;4977400;28;20200;-92
2024/04/01 09:49:46;;;;;;;2.17;1.98;;;11.40;99.90;;;;;;4959286;28;20302;-91
2024/04/01 09:52:13;;;;;;;0.20;0.20;;;11.60;99.90;;;;;;4957716;28;20224;-92
2024/04/01 09:54:41;;;;;;;1.10;0.73;;;11.70;99.90;;;;;;4957405;28;20212;-91
2024/04/01 09:57:46;;;;;;;1.90;1.80;;;12.00;99.90;;;;;;4957200;28;20611;-91
2024/04/01 10:00:16;;;;;;;0.52;0.30;;;12.30;99.90;;;;;;4950119;28;20591;-91
2024/04/01 10:03:06;;;;;;;0.40;0.30;;;12.60;99.90;;;;;;4970589;28;20208;-91
2024/04/01 10:06:06;;;;;;;0.25;0.25;;;12.70;99.90;;;;;;4976923;28;20204;-92
2024/04/01 10:09:01;;;;;;;0.20;0.20;;;12.70;99.90;;;;;;4952012;28;20290;-91
2024/04/01 10:11:45;;;;;;;0.20;0.20;;;12.70;99.90;;;;;;4981260;28;20226;-91
2024/04/01 10:14:31;;;;;;;1.90;0.55;;;12.60;99.90;;;;;;5001422;28;20177;-91
2024/04/01 10:17:33;;;;;;;0.65;0.22;;;12.50;99.90;;;;;;4993231;28;20296;-91
2024/04/01 10:20:23;;;;;;;0.20;0.10;;;12.40;99.90;;;;;;4976975;28;20263;-91
2024/04/01 10:23:14;;;;;;;1.08;0.90;;;12.50;99.90;;;;;;4976939;28;20307;-91
2024/04/01 10:26:04;;;;;;;0.10;0.10;;;12.60;99.90;;;;;;4976723;28;20240;-91
2024/04/01 10:29:02;;;;;;;0.10;0.10;;;12.50;99.90;;;;;;4956871;28;20197;-91
2024/04/01 10:32:16;;;;;;;0.13;0.10;;;12.40;99.90;;;;;;4960758;28;20633;-89
2024/04/01 10:34:58;;;;;;;0.75;0.40;;;12.20;99.90;;;;;;4916400;29;20207;-91
2024/04/01 10:37:50;;;;;;;0.20;0.20;;;12.10;99.90;;;;;;4960480;28;20594;-90
2024/04/01 10:40:35;;;;;;;0.10;0.10;;;12.10;99.90;;;;;;4968613;28;20512;-91
2024/04/01 10:43:38;;;;;;;0.13;0.10;;;12.00;99.90;;;;;;4965086;28;20208;-90
2024/04/01 10:46:34;;;;;;;0.20;0.20;;;11.90;99.90;;;;;;4975943;28;20295;-91
2024/04/01 10:49:29;;;;;;;0.20;0.20;;;11.70;99.90;;;;;;4968045;28;20271;-90
2024/04/01 10:52:21;;;;;;;4.32;0.20;;;11.70;99.90;;;;;;4956932;28;20248;-90
2024/04/01 10:55:06;;;;;;;0.43;0.30;;;11.70;99.90;;;;;;4975121;28;20347;-91
2024/04/01 10:57:52;;;;;;;0.20;0.20;;;11.80;99.90;;;;;;4975905;28;20222;-90
2024/04/01 11:00:40;;;;;;;0.10;0.10;;;12.00;99.90;;;;;;4961538;28;20238;-91
2024/04/01 11:03:44;;;;;;;0.30;0.25;;;12.00;99.90;;;;;;4956470;28;20244;-91
2024/04/01 11:06:47;;;;;;;0.50;0.30;;;12.10;99.90;;;;;;4953819;28;20208;-91
2024/04/01 11:09:41;;;;;;;1.80;0.10;;;12.10;99.90;;;;;;4979864;28;20563;-91
2024/04/01 11:12:22;;;;;;;0.20;0.20;;;12.20;99.90;;;;;;4995032;28;20222;-92
2024/04/01 11:14:51;;;;;;;0.20;0.20;;;12.20;99.90;;;;;;4995712;28;20575;-91
2024/04/01 11:17:19;;;;;;;0.10;0.10;;;12.20;99.90;;;;;;4958965;28;20233;-91
2024/04/01 11:20:15;;;;;;;0.10;0.10;;;12.30;99.90;;;;;;4969362;28;20669;-91
2024/04/01 11:22:57;;;;;;;0.10;0.10;;;12.40;99.90;;;;;;4975356;28;20200;-92
2024/04/01 11:25:30;;;;;;;0.05;0.05;;;12.50;99.90;;;;;;4968679;28;20265;-91
2024/04/01 11:28:30;;;;;;;0.10;0.10;;;12.60;99.90;;;;;;4956115;28;20272;-91
2024/04/01 11:31:04;;;;;;;0.10;0.10;;;12.60;99.90;;;;;;4959895;28;20315;-91
2024/04/01 11:33:38;;;;;;;0.10;0.10;;;12.50;99.90;;;;;;4975692;28;20215;-91
2024/04/01 11:36:05;;;;;;;0.10;0.10;;;12.40;99.90;;;;;;4976688;28;20208;-91
2024/04/01 11:38:40;;;;;;;0.38;0.20;;;12.40;99.90;;;;;;4976086;28;20231;-91
2024/04/01 11:41:10;;;;;;;0.88;0.20;;;12.40;99.90;;;;;;4977041;28;20235;-91
2024/04/01 11:43:39;;;;;;;0.47;0.40;;;12.50;99.90;;;;;;4982722;28;20294;-91
2024/04/01 11:46:07;;;;;;;0.30;0.22;;;12.40;99.90;;;;;;4982539;28;20266;-91
2024/04/01 11:48:35;;;;;;;0.20;0.10;;;12.30;99.90;;;;;;4976047;28;20200;-91
2024/04/01 11:51:02;;;;;;;3.60;0.20;;;12.10;99.90;;;;;;4975639;28;20220;-90
2024/04/01 11:53:39;;;;;;;0.10;0.10;;;12.00;99.90;;;;;;4975867;28;20204;-91
2024/04/01 11:56:06;;;;;;;0.30;0.10;;;11.90;99.90;;;;;;4975904;28;20234;-91
2024/04/01 11:58:33;;;;;;;0.20;0.20;;;11.80;99.90;;;;;;4976017;28;20219;-91
2024/04/01 12:01:00;;;;;;;0.10;0.10;;;11.80;99.90;;;;;;4975808;28;20740;-91
2024/04/01 12:03:39;;;;;;;0.10;0.10;;;11.90;99.90;;;;;;4975298;28;20212;-91
2024/04/01 12:06:06;;;;;;;0.10;0.10;;;11.90;99.90;;;;;;4975524;28;20227;-91
2024/04/01 12:08:35;;;;;;;0.47;0.10;;;11.90;99.90;;;;;;4975407;28;20249;-91
2024/04/01 12:11:05;;;;;;;0.10;0.10;;;11.80;99.90;;;;;;4975419;28;20694;-91
2024/04/01 12:13:32;;;;;;;0.30;0.30;;;11.80;99.90;;;;;;4975199;28;20573;-91
2024/04/01 12:15:59;;;;;;;0.10;0.03;;;12.00;99.90;;;;;;4975305;28;20315;-91
2024/04/01 12:18:26;;;;;;;0.82;0.20;;;12.10;99.90;;;;;;4975371;28;20570;-91
2024/04/01 12:20:55;;;;;;;0.10;0.10;;;12.20;99.90;;;;;;4975759;28;20323;-91
2024/04/01 12:23:23;;;;;;;0.13;0.13;;;12.20;99.90;;;;;;4976292;28;20563;-91
2024/04/01 12:25:50;;;;;;;0.17;0.15;;;12.00;99.90;;;;;;4974392;28;20204;-91
2024/04/01 12:28:19;;;;;;;0.70;0.20;;;12.10;99.90;;;;;;4955990;28;20622;-91
2024/04/01 12:30:51;;;;;;;0.45;0.45;;;12.10;99.90;;;;;;4973735;28;20318;-91
2024/04/01 12:33:20;;;;;;;0.13;0.10;;;12.00;99.90;;;;;;4975551;28;20583;-91
2024/04/01 12:35:49;;;;;;;0.10;0.10;;;12.10;99.90;;;;;;4975430;28;20215;-91
2024/04/01 12:38:23;;;;;;;0.47;0.30;;;12.30;99.90;;;;;;4975213;28;20666;-91
2024/04/01 12:40:50;;;;;;;0.10;0.10;;;12.40;99.90;;;;;;4975396;28;20225;-90
2024/04/01 12:43:21;;;;;;;0.10;0.10;;;12.40;99.90;;;;;;4975009;28;20255;-91
2024/04/01 12:45:51;;;;;;;0.28;0.20;;;12.60;99.90;;;;;;4958577;28;20189;-91
2024/04/01 12:48:18;;;;;;;0.00;0.00;;;12.80;99.90;;;;;;4955624;28;20276;-91
2024/04/01 12:50:47;;;;;;;0.10;0.10;;;13.00;99.90;;;;;;4957514;28;20237;-91
2024/04/01 12:53:27;;;;;;;0.85;0.20;;;13.30;99.90;;;;;;4974999;28;20219;-91
2024/04/01 12:55:59;;;;;;;0.22;0.20;;;13.50;99.90;;;;;;4974925;28;20283;-91
2024/04/01 12:58:32;;;;;;;0.15;0.10;;;13.80;99.90;;;;;;4975035;28;20193;-91